createdAt,value
2023-03-26T00:01:13.969Z,6.32
2023-03-26T00:06:10.483Z,6.18
2023-03-26T00:08:38.547Z,5.35
2023-03-26T00:11:06.367Z,5.32
2023-03-26T00:13:33.392Z,5.15
2023-03-26T00:16:00.509Z,5.68
2023-03-26T00:18:31.518Z,5.38
2023-03-26T00:20:58.995Z,5.53
2023-03-26T00:23:26.972Z,5.55
2023-03-26T00:25:54.675Z,4.47
2023-03-26T00:28:26.302Z,5.10
2023-03-26T00:31:04.761Z,6.18
2023-03-26T00:33:31.884Z,5.38
2023-03-26T00:36:02.468Z,4.88
2023-03-26T00:38:31.116Z,4.88
2023-03-26T00:41:05.892Z,6.15
2023-03-26T00:43:34.451Z,5.85
2023-03-26T00:46:02.204Z,5.60
2023-03-26T00:48:44.437Z,5.18
2023-03-26T00:51:15.204Z,6.65
2023-03-26T00:53:42.932Z,6.45
2023-03-26T00:56:10.025Z,6.88
2023-03-26T00:58:37.184Z,6.25
2023-03-26T01:01:07.350Z,5.13
2023-03-26T01:03:36.248Z,5.85
2023-03-26T01:06:08.059Z,5.72
2023-03-26T01:08:38.800Z,5.80
2023-03-26T01:11:14.465Z,6.75
2023-03-26T01:13:46.945Z,5.85
2023-03-26T01:16:34.245Z,5.32
2023-03-26T01:19:00.854Z,5.90
2023-03-26T01:21:30.373Z,5.57
2023-03-26T01:24:07.335Z,6.38
2023-03-26T01:26:52.726Z,5.72
2023-03-26T01:29:31.646Z,6.03
2023-03-26T01:32:09.525Z,5.40
2023-03-26T01:35:03.506Z,5.50
2023-03-26T01:37:52.405Z,5.28
2023-03-26T01:40:18.956Z,5.00
2023-03-26T01:42:54.684Z,5.93
2023-03-26T01:45:24.898Z,5.45
2023-03-26T01:47:52.525Z,5.63
2023-03-26T01:50:19.238Z,6.25
2023-03-26T01:52:45.827Z,6.85
2023-03-26T01:55:14.446Z,6.32
2023-03-26T01:58:11.923Z,5.38
2023-03-26T02:00:43.372Z,5.00
2023-03-26T02:03:32.295Z,5.47
2023-03-26T02:06:15.729Z,5.47
2023-03-26T02:08:56.570Z,4.72
2023-03-26T02:11:23.463Z,5.38
2023-03-26T02:13:50.961Z,5.20
2023-03-26T02:16:19.656Z,5.57
2023-03-26T02:18:51.295Z,5.57
2023-03-26T02:21:21.332Z,6.47
2023-03-26T02:23:50.611Z,6.07
2023-03-26T02:26:19.754Z,5.25
2023-03-26T02:28:54.727Z,5.63
2023-03-26T02:31:21.738Z,4.85
2023-03-26T02:33:49.446Z,4.90
2023-03-26T02:36:19.614Z,5.40
2023-03-26T02:38:47.852Z,5.95
2023-03-26T02:41:14.928Z,5.47
2023-03-26T02:43:54.226Z,6.05
2023-03-26T02:46:23.757Z,6.38
2023-03-26T02:48:57.199Z,6.38
2023-03-26T02:51:25.700Z,5.07
2023-03-26T02:54:01.531Z,5.28
2023-03-26T02:56:33.931Z,5.07
2023-03-26T02:59:17.268Z,5.95
2023-03-26T03:01:47.081Z,5.72
2023-03-26T03:04:17.865Z,5.13
2023-03-26T03:06:44.675Z,4.80
2023-03-26T03:09:12.278Z,4.88
2023-03-26T03:11:40.321Z,5.40
2023-03-26T03:14:07.894Z,4.72
2023-03-26T03:16:35.310Z,4.80
2023-03-26T03:19:06.104Z,5.10
2023-03-26T03:21:42.138Z,5.63
2023-03-26T03:24:09.331Z,4.43
2023-03-26T03:26:42.201Z,5.10
2023-03-26T03:29:24.535Z,5.20
2023-03-26T03:31:51.379Z,5.20
2023-03-26T03:34:33.844Z,4.22
2023-03-26T03:37:00.563Z,5.50
2023-03-26T03:39:36.289Z,5.75
2023-03-26T03:42:03.454Z,4.68
2023-03-26T03:44:30.110Z,4.57
2023-03-26T03:46:57.255Z,4.68
2023-03-26T03:49:23.922Z,4.15
2023-03-26T03:51:51.136Z,4.97
2023-03-26T03:54:30.642Z,5.30
2023-03-26T03:57:06.913Z,5.75
2023-03-26T03:59:38.429Z,4.72
2023-03-26T04:02:14.249Z,5.30
2023-03-26T04:04:50.066Z,4.15
2023-03-26T04:07:19.112Z,4.78
2023-03-26T04:10:07.591Z,4.80
2023-03-26T04:13:00.623Z,4.50
2023-03-26T04:15:50.611Z,4.70
2023-03-26T04:18:20.282Z,4.70
2023-03-26T04:20:47.385Z,4.78
2023-03-26T04:23:23.637Z,5.30
2023-03-26T04:26:01.342Z,4.80
2023-03-26T04:28:49.761Z,4.18
2023-03-26T04:31:24.709Z,4.65
2023-03-26T04:36:32.585Z,4.88
2023-03-26T04:39:07.008Z,4.13
2023-03-26T04:45:03.650Z,5.00
2023-03-26T04:47:32.583Z,4.25
2023-03-26T04:50:00.333Z,5.88
2023-03-26T04:52:27.794Z,4.72
2023-03-26T04:54:57.513Z,4.53
2023-03-26T04:57:39.328Z,4.32
2023-03-26T05:00:21.408Z,5.80
2023-03-26T05:02:55.918Z,4.15
2023-03-26T05:05:31.634Z,4.73
2023-03-26T05:08:00.291Z,4.68
2023-03-26T05:10:27.025Z,4.85
2023-03-26T05:13:04.285Z,4.20
2023-03-26T05:15:45.158Z,4.50
2023-03-26T05:18:32.414Z,6.35
2023-03-26T05:21:00.618Z,5.32
2023-03-26T05:23:30.927Z,4.97
2023-03-26T05:26:18.416Z,4.65
2023-03-26T05:28:45.168Z,5.50
2023-03-26T05:31:24.092Z,4.97
2023-03-26T05:33:54.931Z,5.10
2023-03-26T05:36:22.691Z,5.10
2023-03-26T05:39:01.105Z,8.55
2023-03-26T05:41:50.146Z,6.93
2023-03-26T05:44:20.629Z,5.40
2023-03-26T05:46:49.699Z,4.20
2023-03-26T05:49:23.600Z,4.43
2023-03-26T05:51:50.436Z,4.88
2023-03-26T05:54:36.123Z,4.93
2023-03-26T05:57:31.815Z,4.78
2023-03-26T06:00:18.430Z,4.82
2023-03-26T06:02:46.646Z,5.05
2023-03-26T06:05:39.698Z,5.78
2023-03-26T06:08:26.897Z,5.18
2023-03-26T06:11:05.030Z,6.13
2023-03-26T06:13:35.316Z,5.45
2023-03-26T06:16:02.160Z,5.90
2023-03-26T06:18:34.706Z,6.50
2023-03-26T06:21:19.927Z,5.32
2023-03-26T06:24:00.397Z,4.73
2023-03-26T06:26:39.658Z,5.32
2023-03-26T06:29:19.469Z,5.47
2023-03-26T06:34:51.451Z,4.72
2023-03-26T06:37:18.197Z,5.03
2023-03-26T06:39:46.661Z,6.05
2023-03-26T06:42:16.448Z,5.15
2023-03-26T06:44:53.042Z,6.57
2023-03-26T06:47:34.750Z,5.88
2023-03-26T06:50:13.741Z,5.45
2023-03-26T06:52:56.157Z,5.25
2023-03-26T06:55:41.810Z,6.78
2023-03-26T06:58:29.757Z,5.75
2023-03-26T07:01:14.979Z,5.75
2023-03-26T07:04:00.538Z,6.50
2023-03-26T07:06:45.921Z,5.22
2023-03-26T07:09:31.349Z,5.78
2023-03-26T07:12:18.275Z,6.15
2023-03-26T07:15:03.544Z,6.32
2023-03-26T07:17:48.626Z,5.85
2023-03-26T07:20:21.850Z,6.22
2023-03-26T07:22:48.848Z,5.97
2023-03-26T07:25:28.885Z,6.15
2023-03-26T07:28:35.745Z,5.90
2023-03-26T07:31:42.823Z,6.55
2023-03-26T07:34:41.618Z,6.00
2023-03-26T07:37:42.194Z,6.63
2023-03-26T07:40:31.626Z,6.43
2023-03-26T07:43:42.519Z,6.57
2023-03-26T07:46:31.864Z,7.60
2023-03-26T07:49:13.032Z,6.40
2023-03-26T07:51:52.447Z,6.13
2023-03-26T07:54:37.980Z,7.30
2023-03-26T07:58:02.536Z,7.88
2023-03-26T08:01:11.602Z,8.50
2023-03-26T08:04:29.685Z,8.68
2023-03-26T08:07:23.939Z,8.30
2023-03-26T08:13:29.548Z,9.10
2023-03-26T08:16:19.963Z,10.43
2023-03-26T08:18:54.529Z,12.87
2023-03-26T08:21:29.310Z,11.75
2023-03-26T08:24:33.673Z,10.98
2023-03-26T08:27:38.680Z,10.73
2023-03-26T08:30:17.772Z,12.20
2023-03-26T08:33:18.058Z,11.70
2023-03-26T08:35:45.726Z,10.90
2023-03-26T08:38:14.418Z,10.50
2023-03-26T08:41:08.816Z,11.07
2023-03-26T08:44:06.302Z,12.10
2023-03-26T08:47:10.912Z,12.55
2023-03-26T08:49:40.266Z,11.93
2023-03-26T08:52:44.662Z,13.00
2023-03-26T08:55:20.434Z,12.10
2023-03-26T08:58:02.682Z,91.43
2023-03-26T09:01:07.372Z,90.63
2023-03-26T09:03:53.680Z,100.15
2023-03-26T09:06:57.849Z,125.07
2023-03-26T09:09:40.038Z,107.85
2023-03-26T09:12:37.113Z,91.78
2023-03-26T09:15:03.650Z,81.55
2023-03-26T09:18:00.338Z,17.27
2023-03-26T09:20:58.746Z,13.95
2023-03-26T09:23:49.706Z,30.00
2023-03-26T09:26:22.734Z,61.65
2023-03-26T09:29:31.617Z,52.92
2023-03-26T09:32:09.586Z,40.13
2023-03-26T09:34:39.476Z,75.78
2023-03-26T09:37:12.429Z,63.78
2023-03-26T09:39:45.740Z,94.75
2023-03-26T09:42:23.173Z,86.57
2023-03-26T09:44:55.501Z,88.97
2023-03-26T09:47:39.828Z,104.35
2023-03-26T09:50:29.530Z,114.15
2023-03-26T09:53:10.975Z,91.93
2023-03-26T09:55:50.992Z,98.57
2023-03-26T09:58:23.977Z,132.77
2023-03-26T10:01:12.524Z,80.47
2023-03-26T10:04:28.138Z,77.55
2023-03-26T10:07:10.450Z,105.40
2023-03-26T10:10:00.293Z,70.85
2023-03-26T10:12:46.202Z,89.28
2023-03-26T10:15:26.890Z,92.45
2023-03-26T10:18:26.759Z,57.08
2023-03-26T10:21:04.531Z,44.97
2023-03-26T10:23:39.566Z,126.55
2023-03-26T10:26:38.546Z,81.50
2023-03-26T10:29:32.460Z,70.13
2023-03-26T10:32:17.222Z,88.70
2023-03-26T10:34:46.526Z,75.80
2023-03-26T10:37:33.018Z,84.72
2023-03-26T10:40:18.061Z,82.88
2023-03-26T10:43:02.828Z,80.30
2023-03-26T10:45:35.199Z,99.47
2023-03-26T10:48:12.455Z,83.20
2023-03-26T10:51:16.808Z,103.95
2023-03-26T10:54:06.199Z,98.47
2023-03-26T10:56:36.641Z,129.68
2023-03-26T10:59:10.473Z,101.05
2023-03-26T11:02:00.177Z,92.95
2023-03-26T11:04:33.756Z,88.80
2023-03-26T11:07:28.541Z,97.45
2023-03-26T11:10:07.619Z,148.85
2023-03-26T11:12:58.390Z,91.35
2023-03-26T11:15:25.152Z,83.82
2023-03-26T11:18:03.279Z,156.98
2023-03-26T11:20:42.445Z,89.20
2023-03-26T11:23:19.953Z,88.85
2023-03-26T11:25:58.706Z,149.18
2023-03-26T11:28:30.759Z,88.63
2023-03-26T11:33:49.360Z,129.35
2023-03-26T11:36:19.792Z,95.20
2023-03-26T11:38:49.018Z,111.53
2023-03-26T11:41:25.429Z,86.43
2023-03-26T11:44:26.359Z,102.18
2023-03-26T11:47:17.051Z,112.03
2023-03-26T11:49:50.117Z,106.85
2023-03-26T11:52:17.092Z,92.72
2023-03-26T11:54:48.153Z,109.20
2023-03-26T11:59:57.886Z,109.40
2023-03-26T12:02:36.114Z,96.87
2023-03-26T12:05:26.583Z,114.32
2023-03-26T12:08:01.445Z,98.65
2023-03-26T12:10:33.630Z,101.65
2023-03-26T12:13:03.452Z,113.93
2023-03-26T12:15:31.932Z,102.18
2023-03-26T12:18:00.082Z,105.93
2023-03-26T12:20:29.492Z,100.07
2023-03-26T12:23:00.889Z,106.25
2023-03-26T12:25:34.328Z,102.97
2023-03-26T12:28:08.998Z,132.23
2023-03-26T12:30:37.904Z,100.15
2023-03-26T12:33:07.155Z,207.70
2023-03-26T12:35:35.762Z,101.10
2023-03-26T12:38:35.838Z,112.32
2023-03-26T12:43:51.406Z,114.20
2023-03-26T12:44:49.933Z,111.80
2023-03-26T12:47:56.484Z,114.75
2023-03-26T12:49:56.101Z,109.00
2023-03-26T12:52:30.140Z,105.35
2023-03-26T12:55:42.567Z,107.70
2023-03-26T12:58:23.285Z,124.68
2023-03-26T13:01:18.409Z,97.22
2023-03-26T13:04:28.684Z,105.05
2023-03-26T13:07:00.339Z,105.05
2023-03-26T13:09:28.679Z,105.85
2023-03-26T13:12:22.982Z,105.88
2023-03-26T13:15:17.887Z,105.07
2023-03-26T13:17:57.377Z,106.93
2023-03-26T13:20:26.591Z,173.63
2023-03-26T13:23:02.644Z,105.65
2023-03-26T13:25:35.297Z,133.95
2023-03-26T13:28:10.736Z,106.35
2023-03-26T13:31:04.077Z,150.35
2023-03-26T13:33:39.436Z,137.68
2023-03-26T13:36:23.234Z,116.63
2023-03-26T13:38:58.548Z,115.95
2023-03-26T13:41:44.584Z,138.10
2023-03-26T13:44:32.756Z,118.25
2023-03-26T13:47:03.770Z,134.20
2023-03-26T13:49:38.597Z,115.95
2023-03-26T13:52:07.183Z,134.38
2023-03-26T13:55:18.048Z,114.90
2023-03-26T13:58:06.502Z,117.32
2023-03-26T14:00:58.733Z,111.65
2023-03-26T14:03:45.274Z,116.93
2023-03-26T14:06:46.602Z,141.10
2023-03-26T14:09:18.011Z,109.65
2023-03-26T14:11:57.847Z,109.47
2023-03-26T14:14:47.837Z,106.22
2023-03-26T14:17:22.484Z,104.25
2023-03-26T14:20:20.576Z,113.03
2023-03-26T14:23:07.715Z,119.90
2023-03-26T14:26:02.738Z,108.70
2023-03-26T14:28:58.423Z,106.13
2023-03-26T14:31:31.514Z,106.15
2023-03-26T14:34:05.083Z,106.38
2023-03-26T14:36:40.390Z,115.50
2023-03-26T14:39:46.896Z,114.72
2023-03-26T14:42:22.864Z,123.88
2023-03-26T14:45:24.523Z,108.35
2023-03-26T14:48:28.514Z,103.93
2023-03-26T14:51:13.631Z,107.07
2023-03-26T14:54:08.795Z,175.52
2023-03-26T14:56:52.613Z,120.38
2023-03-26T14:59:43.418Z,109.35
2023-03-26T15:02:22.193Z,113.00
2023-03-26T15:05:03.858Z,129.10
2023-03-26T15:08:07.671Z,136.20
2023-03-26T15:10:52.549Z,117.88
2023-03-26T15:13:43.346Z,102.68
2023-03-26T15:16:42.941Z,103.78
2023-03-26T15:19:27.717Z,103.82
2023-03-26T15:22:12.878Z,111.40
2023-03-26T15:25:21.198Z,125.72
2023-03-26T15:28:06.416Z,120.22
2023-03-26T15:30:44.803Z,112.97
2023-03-26T15:33:14.481Z,108.15
2023-03-26T15:35:51.434Z,106.68
2023-03-26T15:38:23.746Z,112.07
2023-03-26T15:41:03.558Z,101.93
2023-03-26T15:44:23.526Z,129.13
2023-03-26T15:47:20.820Z,108.03
2023-03-26T15:49:55.045Z,103.53
2023-03-26T15:52:43.494Z,119.45
2023-03-26T15:55:15.900Z,154.00
2023-03-26T15:57:56.962Z,112.25
2023-03-26T16:00:29.062Z,122.45
2023-03-26T16:03:10.852Z,103.13
2023-03-26T16:05:52.429Z,115.18
2023-03-26T16:08:40.447Z,111.47
2023-03-26T16:11:12.598Z,102.85
2023-03-26T16:13:46.170Z,109.47
2023-03-26T16:16:16.264Z,107.45
2023-03-26T16:19:10.978Z,103.72
2023-03-26T16:21:39.820Z,131.70
2023-03-26T16:24:07.200Z,103.15
2023-03-26T16:26:52.085Z,120.13
2023-03-26T16:29:26.975Z,116.55
2023-03-26T16:31:59.838Z,101.78
2023-03-26T16:34:49.489Z,129.55
2023-03-26T16:37:40.769Z,111.25
2023-03-26T16:40:22.316Z,147.70
2023-03-26T16:43:26.651Z,107.85
2023-03-26T16:46:02.051Z,94.65
2023-03-26T16:48:37.483Z,161.82
2023-03-26T16:51:22.941Z,102.50
2023-03-26T16:54:09.491Z,120.07
2023-03-26T16:56:43.217Z,152.38
2023-03-26T17:00:04.527Z,98.07
2023-03-26T17:02:55.198Z,100.25
2023-03-26T17:05:34.425Z,102.45
2023-03-26T17:08:37.191Z,95.60
2023-03-26T17:11:19.330Z,84.53
2023-03-26T17:14:03.456Z,100.05
2023-03-26T17:16:36.136Z,90.65
2023-03-26T17:19:10.687Z,70.90
2023-03-26T17:21:53.057Z,107.72
2023-03-26T17:24:40.680Z,70.88
2023-03-26T17:27:50.078Z,90.20
2023-03-26T17:30:49.341Z,138.80
2023-03-26T17:33:32.004Z,83.15
2023-03-26T17:36:22.491Z,88.97
2023-03-26T17:38:48.948Z,145.03
2023-03-26T17:41:55.237Z,81.68
2023-03-26T17:44:56.005Z,81.28
2023-03-26T17:47:26.758Z,94.97
2023-03-26T17:50:00.031Z,82.05
2023-03-26T17:52:48.090Z,106.32
2023-03-26T17:55:21.041Z,145.38
2023-03-26T17:57:51.702Z,127.25
2023-03-26T18:00:22.886Z,142.55
2023-03-26T18:03:23.132Z,98.45
2023-03-26T18:05:55.495Z,96.25
2023-03-26T18:08:37.013Z,81.32
2023-03-26T18:11:24.681Z,96.15
2023-03-26T18:14:06.126Z,179.15
2023-03-26T18:16:39.207Z,72.45
2023-03-26T18:19:19.002Z,100.18
2023-03-26T18:21:51.303Z,78.15
2023-03-26T18:24:30.227Z,70.75
2023-03-26T18:27:00.035Z,99.80
2023-03-26T18:29:37.811Z,81.15
2023-03-26T18:32:07.383Z,91.18
2023-03-26T18:34:36.503Z,84.32
2023-03-26T18:37:19.390Z,97.28
2023-03-26T18:40:20.057Z,90.20
2023-03-26T18:42:53.294Z,122.47
2023-03-26T18:45:36.721Z,142.25
2023-03-26T18:48:30.471Z,106.97
2023-03-26T18:51:04.906Z,193.43
2023-03-26T18:53:39.465Z,94.72
2023-03-26T18:56:32.338Z,106.05
2023-03-26T18:59:00.024Z,111.63
2023-03-26T19:01:31.204Z,85.28
2023-03-26T19:06:26.514Z,79.50
2023-03-26T19:08:53.395Z,96.45
2023-03-26T19:11:20.580Z,111.97
2023-03-26T19:13:59.000Z,88.25
2023-03-26T19:16:33.852Z,77.75
2023-03-26T19:19:03.044Z,87.40
2023-03-26T19:21:29.742Z,74.90
2023-03-26T19:23:56.490Z,100.10
2023-03-26T19:26:23.183Z,83.47
2023-03-26T19:28:53.223Z,82.78
2023-03-26T19:31:31.698Z,103.43
2023-03-26T19:33:59.462Z,100.30
2023-03-26T19:36:30.067Z,75.68
2023-03-26T19:38:59.436Z,90.47
2023-03-26T19:41:38.611Z,82.15
2023-03-26T19:44:17.751Z,81.88
2023-03-26T19:46:53.414Z,72.28
2023-03-26T19:49:41.178Z,64.32
2023-03-26T19:52:17.669Z,90.53
2023-03-26T19:55:24.132Z,66.43
2023-03-26T19:57:51.591Z,75.80
2023-03-26T20:00:18.960Z,108.70
2023-03-26T20:02:46.407Z,90.68
2023-03-26T20:05:23.081Z,82.75
2023-03-26T20:07:50.497Z,128.95
2023-03-26T20:10:17.179Z,125.18
2023-03-26T20:12:43.866Z,113.80
2023-03-26T20:15:19.827Z,114.90
2023-03-26T20:17:51.026Z,127.78
2023-03-26T20:20:19.257Z,127.78
2023-03-26T20:22:47.017Z,135.98
2023-03-26T20:27:47.031Z,80.78
2023-03-26T20:30:19.001Z,187.35
2023-03-26T20:32:46.126Z,89.40
2023-03-26T20:35:36.247Z,132.23
2023-03-26T20:38:03.319Z,81.20
2023-03-26T20:40:31.670Z,127.15
2023-03-26T20:42:58.378Z,81.53
2023-03-26T20:45:26.218Z,111.90
2023-03-26T20:47:55.667Z,81.88
2023-03-26T20:50:23.155Z,80.53
2023-03-26T20:52:50.290Z,73.35
2023-03-26T20:55:21.412Z,121.07
2023-03-26T20:57:48.734Z,67.60
2023-03-26T21:00:17.356Z,102.55
2023-03-26T21:02:44.041Z,78.63
2023-03-26T21:05:14.840Z,117.88
2023-03-26T21:07:43.278Z,72.32
2023-03-26T21:10:13.616Z,180.55
2023-03-26T21:12:56.691Z,79.53
2023-03-26T21:15:23.985Z,92.30
2023-03-26T21:17:51.958Z,76.35
2023-03-26T21:20:19.641Z,133.50
2023-03-26T21:23:13.331Z,81.05
2023-03-26T21:25:49.118Z,83.90
2023-03-26T21:28:41.392Z,143.48
2023-03-26T21:31:18.460Z,106.35
2023-03-26T21:33:45.875Z,93.93
2023-03-26T21:36:13.249Z,2.17
2023-03-26T21:38:43.468Z,2.83
2023-03-26T21:41:41.579Z,1.88
2023-03-26T21:44:08.500Z,2.22
2023-03-26T21:46:35.703Z,2.70
2023-03-26T21:49:02.483Z,2.65
2023-03-26T21:51:29.441Z,2.00
2023-03-26T21:53:56.211Z,2.35
2023-03-26T21:56:45.981Z,2.35
2023-03-26T21:59:37.081Z,2.90
2023-03-26T22:02:23.499Z,3.15
2023-03-26T22:05:12.638Z,2.85
2023-03-26T22:07:52.172Z,2.53
2023-03-26T22:10:19.061Z,2.45
2023-03-26T22:12:46.806Z,2.05
2023-03-26T22:15:13.814Z,3.13
2023-03-26T22:17:41.713Z,1.85
2023-03-26T22:20:13.313Z,2.20
2023-03-26T22:22:41.500Z,2.22
2023-03-26T22:25:10.307Z,2.22
2023-03-26T22:27:44.016Z,2.63
2023-03-26T22:30:12.303Z,2.50
2023-03-26T22:32:38.916Z,2.67
2023-03-26T22:35:06.927Z,3.05
2023-03-26T22:37:34.385Z,2.58
2023-03-26T22:40:01.445Z,2.60
2023-03-26T22:42:28.015Z,2.72
2023-03-26T22:44:54.518Z,2.00
2023-03-26T22:47:21.758Z,2.85
2023-03-26T22:49:48.391Z,3.30
2023-03-26T22:52:15.000Z,2.30
2023-03-26T22:54:42.123Z,3.22
2023-03-26T22:57:08.850Z,63.42
2023-03-26T22:59:35.536Z,3.03
2023-03-26T23:02:02.099Z,2.40
2023-03-26T23:04:32.270Z,2.60
2023-03-26T23:06:59.077Z,2.85
2023-03-26T23:09:25.750Z,2.58
2023-03-26T23:11:52.405Z,2.60
2023-03-26T23:14:19.021Z,2.78
2023-03-26T23:16:48.481Z,2.78
2023-03-26T23:19:15.229Z,3.45
2023-03-26T23:21:42.250Z,2.75
2023-03-26T23:24:08.977Z,2.50
2023-03-26T23:26:49.528Z,2.85
2023-03-26T23:29:17.221Z,2.53
2023-03-26T23:31:44.028Z,2.63
2023-03-26T23:34:13.230Z,2.47
2023-03-26T23:36:41.115Z,2.60
2023-03-26T23:39:08.937Z,2.42
2023-03-26T23:41:35.539Z,2.35
2023-03-26T23:44:02.133Z,3.00
2023-03-26T23:46:34.901Z,2.60
2023-03-26T23:49:04.523Z,2.83
2023-03-26T23:51:31.983Z,2.75
2023-03-26T23:53:59.584Z,2.22
2023-03-26T23:56:29.636Z,2.33
2023-03-26T23:58:56.162Z,2.45
